x

9410230 - La Jolla, Ca (ljac1) Weather Station

11:12 - Sat 24th Jun 2017 All times are PDT. -7 hours from GMT.

  • Wind
    5mph, 6mph gusts
  • Sea Temp 64°f
  • Ar Temp 65°f
  • Sea Pressure 1011.3mb
  • 9410230 - La Jolla, Ca
  • 9410230 - La Jolla, Ca

More Historic Weather Station data

Upgrade to MSW Pro to gain access to the past 30 days of data for over 8000 Wavebouys and Weather Stations around the globe.

Join Pro

Comparision Forecast

View Surf forecast
   
Sáb 06/24 11:12 5 6 mph 1011.3mb 64f 65f
11:06 6 7 mph 1011.4mb 64f 65f
11:00 7 8 mph 1011.4mb 64f 65f
10:54 6 7 mph 1011.4mb 64f 65f
10:48 6 7 mph 1011.3mb 64f 65f
10:42 7 8 mph 1011.4mb - -
10:36 5 8 mph 1011.4mb - -
10:30 7 8 mph 1011.3mb 65f 65f
10:24 7 9 mph 1011.3mb 64f 65f
10:18 7 8 mph 1011.3mb 64f 65f
10:12 8 9 mph 1011.3mb 64f 65f
10:06 7 8 mph 1011.3mb 63f 65f
10:00 6 8 mph 1011.2mb 64f 65f
9:54 6 8 mph 1011.2mb 64f 65f
9:48 6 7 mph - - -
9:42 6 7 mph 1011.2mb 63f 65f
9:36 7 9 mph 1011mb 63f 65f
9:30 5 6 mph 1011mb 62f 65f
9:24 5 9 mph 1011mb 63f 65f
9:18 6 8 mph 1010.9mb 61f 65f
9:12 2 6 mph 1010.8mb 61f 65f
9:06 7 9 mph 1010.7mb 61f 65f
9:00 5 8 mph 1010.7mb 61f 65f
8:54 3 8 mph 1010.7mb 61f 65f
8:48 3 7 mph - - -
8:42 3 6 mph 1010.6mb 61f 65f
8:36 5 6 mph 1010.6mb 61f 65f
8:30 6 7 mph 1010.6mb 62f 65f
8:24 3 6 mph 1010.6mb 61f 65f
8:18 6 7 mph - - -
8:12 6 6 mph 1010.5mb 61f 65f
8:06 3 7 mph 1010.5mb 61f 65f
8:00 5 6 mph 1010.5mb 61f 65f
7:54 5 7 mph 1010.5mb 62f 65f
7:48 3 5 mph 1010.5mb 63f 65f
7:42 3 7 mph 1010.5mb 63f 65f
7:36 2 6 mph 1010.5mb 63f 65f
7:30 5 7 mph 1010.4mb 63f 65f
7:24 5 9 mph 1010.4mb 63f 65f
7:18 7 8 mph - - -
7:12 5 7 mph 1010.4mb 63f 65f
7:06 5 7 mph 1010.4mb 64f 65f
7:00 7 9 mph 1010.4mb 64f 65f
6:54 6 8 mph 1010.5mb 63f 65f
6:48 7 9 mph - - -
6:42 6 8 mph 1010.5mb 64f 65f
6:36 8 10 mph 1010.5mb 64f 65f
6:30 8 10 mph 1010.5mb 64f 65f
6:24 9 10 mph 1010.5mb 64f 65f
6:18 9 10 mph - - -
6:12 8 10 mph 1010.4mb 64f 65f
6:06 8 10 mph 1010.3mb 64f 65f
6:00 7 9 mph 1010.3mb 64f 65f
5:54 8 10 mph 1010.3mb 64f 65f
5:48 9 10 mph 1010.4mb 64f 65f
5:42 7 9 mph 1010.3mb 64f 65f
5:36 8 11 mph 1010.4mb 63f 65f
5:30 8 11 mph 1010.4mb 63f 65f
5:24 9 11 mph 1010.5mb 63f 66f
5:18 8 10 mph - - -
5:12 9 11 mph 1010.6mb 63f 66f
5:06 10 11 mph 1010.7mb 64f 66f
5:00 9 11 mph 1010.7mb 64f 66f
4:54 9 11 mph 1010.7mb 65f 66f
4:48 9 10 mph 1010.8mb - -
4:42 9 10 mph 1010.9mb 66f 66f
4:36 8 10 mph 1011mb 66f 66f
4:30 7 9 mph 1011.1mb 66f 66f
4:24 8 11 mph 1011.1mb 65f 66f
4:00 8 10 mph 1011.2mb 61f 67f
3:54 9 11 mph 1011.3mb 59f 66f
3:48 9 10 mph - - -
3:42 9 11 mph 1011.4mb 60f 67f
3:36 8 10 mph 1011.4mb 58f 67f
3:30 9 11 mph 1011.5mb 57f 67f
3:24 9 11 mph 1011.6mb 57f 67f
3:18 9 11 mph - - -
3:12 9 11 mph 1011.7mb 57f 67f
3:06 8 10 mph 1011.8mb 57f 67f
3:00 7 9 mph 1011.8mb 57f 67f
2:54 9 10 mph 1011.9mb 57f 67f
2:48 7 8 mph 1011.9mb 57f 68f
2:42 6 7 mph 1012mb 57f 68f
2:36 6 8 mph 1012mb 57f 68f
2:30 6 7 mph 1012.1mb 57f 69f
2:24 6 8 mph 1012.2mb 57f 68f
2:18 3 7 mph 1012.2mb 57f 69f
2:12 6 8 mph 1012.3mb 57f 68f
2:06 5 8 mph 1012.2mb 57f 68f
2:00 8 10 mph 1012.3mb 57f 67f
1:54 8 10 mph 1012.3mb 57f 67f
1:48 8 9 mph 1012.3mb 58f 67f
1:42 7 9 mph 1012.3mb 58f 67f
1:36 8 9 mph 1012.4mb 58f 67f
1:30 8 9 mph 1012.4mb 57f 67f
1:24 8 9 mph 1012.4mb 57f 67f
1:18 8 8 mph 1012.4mb 57f 67f
1:12 7 8 mph 1012.5mb 57f 67f
1:06 7 8 mph 1012.5mb 57f 67f
1:00 6 8 mph 1012.5mb 58f 68f
12:54 6 7 mph 1012.6mb 58f 68f
12:48 6 8 mph 1012.6mb 58f 68f
12:42 6 6 mph 1012.6mb 58f 68f
12:36 5 6 mph 1012.6mb 58f 68f
12:30 6 8 mph 1012.7mb 58f 67f
12:24 6 8 mph 1012.7mb 59f 68f
12:18 6 7 mph 1012.8mb 58f 67f
12:12 6 7 mph 1012.7mb 58f 67f
12:06 5 6 mph 1012.7mb 58f 67f
12:00 6 7 mph 1012.7mb 58f 67f
11:54 6 7 mph 1012.7mb 58f 67f
11:48 5 7 mph - - -
11:42 7 8 mph 1012.8mb 57f 67f
11:36 6 7 mph 1012.7mb 57f 67f
11:30 6 7 mph 1012.7mb 58f 67f
11:24 6 6 mph 1012.8mb 58f 67f
11:18 3 7 mph 1012.8mb 58f 67f
11:12 6 7 mph 1012.7mb 59f 66f
11:06 6 8 mph 1012.8mb 61f 67f
11:00 6 8 mph 1012.7mb 62f 66f
10:54 7 9 mph 1012.8mb 64f 66f
10:48 7 8 mph 1012.7mb 64f 66f
10:42 7 8 mph 1012.6mb 64f 66f
10:36 6 8 mph 1012.7mb 64f 66f
10:30 6 8 mph 1012.7mb 63f 66f
10:24 5 6 mph 1012.6mb 64f 66f
10:18 2 3 mph 1012.7mb 63f 66f
10:12 5 6 mph 1012.7mb 63f 66f
10:06 5 5 mph 1012.7mb 64f 66f
10:00 3 5 mph 1012.6mb 65f 66f
9:54 3 5 mph 1012.6mb 65f 66f
9:48 3 6 mph 1012.7mb 65f 66f
9:42 3 6 mph 1012.6mb 65f 66f
9:36 5 6 mph 1012.5mb 65f 66f
9:30 7 8 mph 1012.6mb 65f 66f
9:24 7 9 mph 1012.5mb 65f 66f
9:18 7 8 mph 1012.4mb 65f 66f
9:12 3 6 mph 1012.4mb 66f 65f
9:06 7 8 mph 1012.6mb 66f 65f
9:00 7 8 mph 1012.7mb 66f 65f
8:54 7 8 mph 1012.5mb 66f 65f
8:48 7 9 mph 1012.5mb 66f 65f
8:42 7 9 mph 1012.4mb 66f 65f
8:36 8 10 mph 1012.4mb 66f 65f
8:30 7 9 mph 1012.5mb 66f 65f
8:24 8 9 mph 1012.4mb 66f 65f
8:18 8 11 mph 1012.3mb 66f 65f
8:12 9 10 mph 1012.3mb 66f 65f
8:06 9 13 mph 1012.3mb 66f 65f
8:00 10 11 mph 1012.2mb 66f 65f
7:54 9 10 mph 1012.3mb 66f 65f
7:48 9 10 mph 1012.4mb 66f 65f
7:42 7 9 mph 1012.4mb 66f 65f
7:36 6 8 mph 1012.3mb 66f 65f
7:30 7 8 mph 1012.3mb 66f 65f
7:24 8 10 mph 1012.4mb 66f 65f
7:18 8 10 mph - - -
7:12 8 10 mph 1012.2mb 66f 65f
7:06 9 11 mph 1012.2mb 65f 65f
7:00 7 9 mph 1012.3mb 65f 65f
6:54 7 8 mph 1012.2mb 66f 65f
6:48 7 9 mph 1012.2mb 65f 65f
6:42 7 9 mph 1012.1mb 65f 65f
6:36 8 9 mph 1012.1mb 65f 65f
6:30 8 9 mph 1012.1mb 66f 65f
6:24 5 8 mph 1011.9mb 65f 65f
6:18 9 11 mph 1011.8mb 65f 65f
6:12 7 13 mph 1011.6mb 65f 65f
6:06 9 10 mph 1011.4mb 65f 65f
6:00 8 10 mph 1011.6mb 64f 66f
5:42 6 9 mph 1011.5mb 65f 65f
5:36 8 10 mph 1011.2mb 64f 65f
5:30 3 7 mph 1011.4mb 63f 65f
5:24 6 9 mph 1011.1mb 63f 65f
5:18 6 9 mph 1011.3mb 64f 65f
5:12 6 7 mph 1011mb 64f 65f
5:06 5 7 mph 1011.1mb 65f 65f
5:00 8 14 mph 1011mb 65f 65f
4:54 9 11 mph 1010.7mb 64f 65f
4:48 10 14 mph - - -
4:42 9 15 mph 1010.6mb 64f 65f
4:36 13 15 mph 1010.4mb 63f 65f
4:30 11 14 mph 1010.5mb 63f 65f
4:24 9 13 mph 1010.6mb 63f 65f
4:18 11 17 mph 1010.7mb 62f 65f
4:12 14 20 mph 1010.4mb 64f 66f
4:06 13 20 mph 1010.4mb 65f 66f
4:00 15 17 mph 1010.2mb 65f 65f
3:54 16 18 mph 1010.2mb 65f 65f
3:48 15 18 mph 1010.4mb 65f 65f
3:42 14 16 mph 1010.4mb 65f 66f
3:36 15 17 mph 1010.6mb 64f 65f
3:30 14 17 mph 1010.6mb 62f 65f
3:24 13 17 mph 1010.7mb 65f 65f
3:18 15 17 mph 1011mb 65f 65f
3:12 13 16 mph 1010.9mb 65f 65f
3:06 14 16 mph 1011.1mb 66f 65f
3:00 11 14 mph 1011.2mb 66f 66f
2:54 11 14 mph 1011.3mb 65f 65f
2:48 10 13 mph 1011.4mb 64f 66f
2:42 8 10 mph 1011.4mb 64f 65f
2:36 9 13 mph 1011.3mb 65f 65f
2:30 10 11 mph 1011.4mb 66f 65f
2:24 8 10 mph 1011.3mb 65f 65f
2:18 10 11 mph 1011.4mb 65f 65f
2:12 8 10 mph 1011.3mb 65f 65f
2:06 9 13 mph 1011.3mb 66f 65f
2:00 9 13 mph 1011.4mb 66f 65f
1:54 9 11 mph 1011.4mb 66f 65f
1:48 6 9 mph 1011.5mb 66f 65f
1:42 8 11 mph 1011.4mb 66f 65f
1:36 9 10 mph 1011.5mb 66f 65f
1:30 8 11 mph 1011.4mb 66f 65f
1:24 8 11 mph 1011.5mb 66f 65f
1:18 8 10 mph 1011.3mb 66f 65f
1:12 10 13 mph 1011.3mb 66f 65f
1:06 8 13 mph 1011.4mb 66f 66f
1:00 8 10 mph 1011.4mb 66f 66f
12:54 10 11 mph 1011.5mb 66f 66f
12:48 8 9 mph 1011.7mb 66f 66f
12:42 8 10 mph 1011.9mb 66f 66f
12:36 6 8 mph 1012mb 66f 66f
12:30 6 10 mph 1012mb 66f 66f
12:24 8 10 mph 1012mb 66f 66f
12:18 10 11 mph - - -
12:12 8 10 mph 1012.1mb 66f 66f
12:06 8 10 mph 1012.1mb 66f 66f
12:00 9 11 mph 1012.1mb 66f 66f
Sex 06/23 11:54 9 10 mph 1012.1mb 66f 66f
11:48 8 9 mph 1012.1mb 66f 66f
11:42 8 9 mph 1012.1mb 66f 66f
11:36 7 10 mph 1012.2mb 66f 66f
11:30 8 9 mph 1012.1mb 66f 66f
11:24 7 8 mph 1012.2mb 66f 66f
11:18 6 7 mph - - -
11:12 6 7 mph 1012.3mb 66f 66f
11:06 3 7 mph 1012.4mb 65f 66f
11:00 5 7 mph 1012.3mb 66f 66f
10:54 5 6 mph 1012.5mb 66f 66f
10:48 3 7 mph 1012.5mb 66f 66f
10:42 5 8 mph 1012.5mb 66f 66f
10:36 5 7 mph 1012.4mb 66f 66f
10:30 6 8 mph 1012.5mb 66f 66f
10:24 7 8 mph 1012.5mb 66f 66f
10:18 7 8 mph 1012.5mb 66f 66f
10:12 6 6 mph 1012.4mb 66f 66f
10:06 5 6 mph 1012.5mb 66f 66f
10:00 5 7 mph 1012.5mb 66f 66f
9:54 6 7 mph 1012.7mb 66f 66f
9:48 5 6 mph - - -
9:42 5 7 mph 1012.7mb 66f 66f
9:36 6 8 mph 1012.7mb 65f 66f
9:30 5 6 mph 1012.6mb 65f 66f
9:24 5 6 mph 1012.6mb 65f 66f
9:18 6 9 mph 1012.7mb 65f 66f
9:12 8 9 mph 1012.5mb 65f 66f
9:06 6 9 mph 1012.6mb 64f 66f
9:00 6 8 mph 1012.6mb 65f 66f
8:54 6 8 mph 1012.5mb 64f 66f
8:48 6 8 mph - - -
8:42 6 7 mph 1012.6mb 64f 66f
8:36 2 6 mph 1012.6mb 64f 66f
8:30 6 8 mph 1012.5mb 64f 66f
8:24 6 9 mph 1012.6mb 65f 66f
8:18 6 7 mph - - -
8:12 5 7 mph 1012.5mb 66f 66f
8:06 6 8 mph 1012.4mb 66f 66f
8:00 7 9 mph 1012.2mb 66f 66f
7:54 5 6 mph 1012.2mb 66f 66f
7:48 5 8 mph - - -
7:42 6 6 mph 1012.3mb 65f 66f
7:36 2 7 mph 1012.5mb 65f 66f
7:30 6 7 mph 1012.5mb 65f 66f
7:24 6 8 mph 1012.5mb 65f 66f
7:18 7 8 mph - - -
7:12 7 8 mph 1012.5mb 65f 66f
7:06 7 8 mph 1012.5mb 65f 67f
7:00 7 8 mph 1012.5mb 65f 67f
6:54 6 8 mph 1012.4mb 65f 67f
6:48 8 9 mph 1012.4mb 65f 67f
6:42 7 8 mph 1012.4mb 65f 67f
6:36 7 8 mph 1012.5mb 65f 67f
6:30 6 8 mph 1012.5mb 65f 67f
6:24 7 8 mph 1012.3mb 65f 67f
6:18 7 8 mph - - -
6:12 8 9 mph 1012.3mb 64f 67f
6:06 7 8 mph 1012.3mb 64f 67f
6:00 7 9 mph 1012.3mb 64f 67f
5:54 7 9 mph 1012.3mb 66f 67f
5:48 8 10 mph - - -
5:42 8 9 mph 1012.4mb 66f 67f
5:36 7 9 mph 1012.4mb 66f 67f
5:30 6 9 mph 1012.2mb 66f 67f
5:24 6 7 mph 1012.3mb 66f 67f
5:18 5 6 mph 1012.3mb 66f 67f
5:12 5 7 mph 1012.4mb 66f 67f
5:06 6 8 mph 1012.3mb 66f 67f
5:00 6 9 mph 1012.3mb 65f 67f
4:54 7 8 mph 1012.2mb 65f 67f
4:48 6 8 mph 1012.2mb - -
4:42 7 8 mph 1012.1mb 64f 67f
4:36 7 8 mph 1012.2mb 63f 67f
4:30 6 8 mph 1012.1mb 63f 67f
4:24 6 7 mph 1012.2mb 65f 67f
4:00 7 8 mph 1011.9mb 65f 67f
3:54 6 9 mph 1012mb 65f 67f
3:48 7 8 mph - - -
3:42 7 8 mph 1012mb 64f 67f
3:36 7 8 mph 1012.1mb 64f 67f
3:30 6 7 mph 1012.2mb 64f 68f
3:24 3 5 mph 1012.3mb 64f 68f
3:18 3 7 mph - - -
3:12 6 6 mph 1012.2mb 65f 67f
3:06 5 6 mph 1012.4mb 65f 68f
3:00 5 6 mph 1012.4mb 65f 68f
2:54 6 6 mph 1012.4mb 65f 68f
2:48 5 6 mph 1012.6mb - -
2:42 3 5 mph 1012.6mb 63f 68f
2:36 3 6 mph 1012.6mb 63f 69f
2:30 6 6 mph 1012.7mb 63f 67f
2:24 6 7 mph 1012.7mb 62f 67f
2:18 7 8 mph 1012.8mb 64f 67f
2:12 8 9 mph 1012.8mb 65f 67f
2:06 7 8 mph 1012.8mb 65f 67f
2:00 6 8 mph 1012.8mb 65f 67f
1:54 6 7 mph 1012.8mb 64f 67f
1:48 7 7 mph 1012.8mb 64f 67f
1:42 6 8 mph 1012.8mb 64f 67f
1:36 6 8 mph 1012.8mb 63f 67f
1:30 7 8 mph 1012.8mb 64f 67f
1:24 7 8 mph 1012.8mb 64f 67f
1:18 7 8 mph 1012.8mb 63f 67f
1:12 7 8 mph 1012.8mb 63f 67f
1:06 7 8 mph 1012.8mb 63f 67f
1:00 7 8 mph 1012.9mb 63f 67f
12:54 7 8 mph 1012.9mb 63f 67f
12:48 6 8 mph 1012.9mb 63f 67f
12:42 7 8 mph 1012.9mb 63f 67f
12:36 7 7 mph 1012.8mb 65f 67f
12:30 6 7 mph 1012.8mb 65f 67f
12:24 6 8 mph 1012.8mb 64f 67f
12:18 6 7 mph 1012.7mb 64f 67f
12:12 6 7 mph 1012.7mb 64f 67f
12:06 6 7 mph 1012.8mb 64f 67f
12:00 5 7 mph 1012.6mb 64f 67f
11:54 6 7 mph 1012.6mb 64f 67f
11:48 6 7 mph 1012.7mb 64f 66f
11:42 7 8 mph 1012.7mb 64f 66f
11:36 7 8 mph 1012.8mb 64f 66f
11:30 6 7 mph 1012.7mb 64f 67f
11:24 6 6 mph 1012.7mb 64f 67f
11:18 5 6 mph - - -
11:12 5 6 mph 1012.6mb 64f 67f
11:06 5 6 mph 1012.6mb 64f 67f
11:00 6 7 mph 1012.6mb 64f 66f
10:54 6 7 mph 1012.6mb 65f 66f
10:48 2 3 mph 1012.6mb 65f 67f
10:42 2 6 mph 1012.6mb 65f 67f
10:36 2 5 mph 1012.6mb 65f 67f
10:30 5 5 mph 1012.6mb 65f 66f
10:24 5 5 mph 1012.6mb 65f 67f
10:18 3 5 mph 1012.5mb 65f 67f
10:12 5 6 mph 1012.4mb 65f 66f
10:06 3 5 mph 1012.5mb 65f 66f
10:00 5 6 mph 1012.4mb 65f 66f
9:54 5 6 mph 1012.5mb 65f 66f
9:48 5 6 mph 1012.5mb 65f 66f
9:42 6 6 mph 1012.4mb 65f 66f
9:36 6 7 mph 1012.3mb 65f 66f
9:30 5 6 mph 1012.3mb 65f 66f
9:24 6 6 mph 1012.4mb 65f 66f
9:18 6 7 mph 1012.4mb 65f 66f
9:12 6 6 mph 1012.3mb 65f 66f
9:06 5 6 mph 1012.4mb 65f 66f
9:00 6 6 mph 1012.3mb 65f 66f
8:54 5 6 mph 1012.3mb 64f 66f
8:48 6 6 mph 1012.3mb 64f 66f
8:42 6 7 mph 1012.4mb 64f 66f
8:36 6 6 mph 1012.3mb 64f 66f
8:30 6 6 mph 1012.3mb 64f 66f
8:24 6 6 mph 1012.3mb 64f 66f
8:18 3 5 mph 1012.3mb 64f 66f
8:12 3 5 mph 1012.2mb 64f 66f
8:06 5 5 mph 1012.2mb 64f 66f
8:00  -  2 mph 1012.2mb 64f 66f
7:54 2 3 mph 1012.2mb 64f 66f
7:48 3 5 mph 1012.1mb 64f 66f
7:42  -  1 mph 1012mb 64f 66f
7:36 1 6 mph 1012mb 64f 66f
7:30 3 5 mph 1011.9mb 64f 66f
7:24 2 3 mph 1011.8mb 64f 66f
7:18  -  3 mph 1011.8mb 64f 66f
7:12 3 5 mph 1011.7mb 64f 66f
7:06 5 7 mph 1011.6mb 64f 66f
7:00 6 8 mph 1011.4mb 64f 66f
6:54 5 6 mph 1011.4mb 64f 66f
6:48 5 5 mph 1011.4mb 64f 66f
6:42 3 5 mph 1011.4mb 64f 66f
6:36 2 3 mph 1011.5mb 64f 66f
6:30 3 5 mph 1011.4mb 64f 66f
6:24 3 5 mph 1011.4mb 64f 65f
6:18 2 3 mph - - -
6:12 2 3 mph 1011.4mb 64f 65f
6:06 3 5 mph 1011.3mb 64f 65f
6:00 2 3 mph 1011.2mb 64f 65f
5:54 2 5 mph 1011.2mb 64f 65f
5:48 5 6 mph - - -
5:42 5 6 mph 1011.2mb 64f 65f
5:36 5 6 mph 1011.2mb 64f 65f
5:30 6 6 mph 1011.1mb 64f 65f
5:24 5 6 mph 1011.1mb 64f 65f
5:18 5 6 mph 1011mb 64f 65f
5:12 5 6 mph 1011mb 64f 65f
5:06 5 6 mph 1010.9mb 64f 65f
5:00 5 7 mph 1010.9mb 64f 65f
4:54 6 7 mph 1011mb 64f 65f
4:48 6 7 mph 1010.9mb 64f 65f
4:42 7 7 mph 1010.9mb 64f 65f
4:36 7 8 mph 1010.9mb 64f 66f
4:30 6 6 mph 1010.9mb 64f 66f
4:24 6 6 mph 1010.9mb 64f 66f
4:18 6 6 mph 1010.7mb 64f 66f
4:12 6 7 mph 1010.8mb 64f 66f
4:06 6 7 mph 1010.7mb 64f 66f
4:00 6 6 mph 1010.7mb 64f 66f
3:54 6 6 mph 1010.6mb 64f 66f
3:48 5 6 mph 1010.5mb 64f 66f
3:42 3 5 mph 1010.4mb 64f 66f
3:36 2 3 mph 1010.3mb 64f 66f
3:30 2 5 mph 1010.3mb 64f 66f
3:24 3 3 mph 1010.3mb 64f 66f
3:18 2 6 mph - - -
3:12 3 3 mph 1010.3mb 64f 66f
3:06 2 6 mph 1010.3mb 64f 66f
3:00 6 6 mph 1010.4mb 64f 66f
2:54 3 6 mph 1010.4mb 64f 66f
2:48 5 6 mph - - -
2:42 3 6 mph 1010.5mb 64f 66f
2:36 3 5 mph 1010.5mb 64f 66f
2:30 5 6 mph 1010.5mb 64f 66f
2:24 5 6 mph 1010.5mb 64f 66f
2:18 2 5 mph 1010.5mb 64f 67f
2:12 3 5 mph 1010.5mb 64f 67f
2:06 1 5 mph 1010.6mb 64f 67f
2:00 5 6 mph 1010.7mb 64f 66f
1:54 2 3 mph 1010.7mb 64f 66f
1:48 3 3 mph - - -
1:42 3 5 mph 1010.7mb 64f 66f
1:36 2 5 mph 1010.7mb 64f 66f
1:30 2 5 mph 1010.8mb 64f 66f
1:24  -  1 mph 1010.8mb 64f 66f
1:18  -  3 mph 1010.7mb 64f 66f
1:12 1 3 mph 1010.7mb 64f 66f
1:06  -  1 mph 1010.8mb 64f 66f
1:00  -  0 mph 1010.8mb 64f 66f
12:54  -  0 mph 1010.9mb 64f 66f
12:48  -  0 mph 1010.8mb 64f 66f
12:42  -  1 mph 1010.8mb 64f 66f
12:36  -  1 mph 1010.9mb 64f 66f
12:30 1 2 mph 1010.9mb 64f 66f
12:24 2 2 mph 1010.9mb 64f 66f
12:18 2 2 mph 1011mb 64f 66f
12:12 2 2 mph 1011mb 64f 66f
12:06 1 2 mph 1011mb 64f 66f
12:00 2 2 mph 1011.1mb 64f 66f
Qui 06/22 11:54 2 3 mph 1011.1mb 64f 66f
11:48 2 3 mph 1011.2mb 64f 66f
11:42 2 3 mph 1011.2mb - -
11:36 3 5 mph 1011.3mb - -
11:30 2 5 mph 1011.3mb 64f 66f
11:24 3 3 mph 1011.4mb 64f 66f
11:18 3 5 mph 1011.4mb 64f 66f
11:12 3 5 mph 1011.4mb 64f 66f
11:06 3 5 mph 1011.5mb 64f 66f
11:00 3 6 mph 1011.5mb 64f 66f
10:54 5 6 mph 1011.6mb 64f 66f
10:48 5 6 mph 1011.6mb 64f 66f
10:42 5 6 mph 1011.5mb 64f -
10:36 5 6 mph 1011.5mb 64f -
10:30 6 6 mph 1011.5mb 64f 66f
10:24 6 6 mph 1011.5mb 64f 66f
10:18 6 6 mph 1011.4mb 64f 66f
10:12 5 7 mph 1011.4mb 64f 66f
10:06 6 7 mph 1011.3mb 64f 66f
10:00 6 7 mph 1011.3mb 64f 66f
9:54 7 7 mph 1011.3mb 64f 66f
9:48 6 9 mph 1011.2mb 64f 66f
9:42 7 8 mph 1011.2mb 64f 66f
9:36 5 6 mph 1011.1mb 64f 66f
9:30 6 7 mph 1011mb 64f 66f
9:24 5 9 mph 1010.9mb 64f 67f
9:18 8 9 mph 1010.9mb 64f 67f
9:12 2 3 mph 1010.9mb 64f 67f
9:06 3 8 mph 1010.9mb 64f 67f
9:00 8 10 mph 1010.8mb 64f 67f
8:54 8 11 mph 1010.7mb 64f 67f
8:48 6 11 mph - - -
8:42 8 9 mph 1010.6mb 64f 67f
8:36 8 10 mph 1010.5mb 64f 67f
8:30 6 9 mph 1010.4mb 64f 67f
8:24 6 6 mph 1010.3mb 64f 67f
8:18 6 10 mph 1010.2mb 64f 67f
8:12 6 7 mph 1010.2mb 64f 67f
8:06 6 8 mph 1010.3mb 65f 67f
8:00 8 10 mph 1010.2mb 65f 67f
7:54 6 8 mph 1010.1mb 65f 67f
7:48 8 9 mph - - -
7:42 5 7 mph 1009.9mb 64f 67f
7:36 7 9 mph 1009.9mb 64f 67f
7:30 3 7 mph 1010mb 64f 67f
7:24 6 9 mph 1009.9mb 64f 67f
7:18 9 10 mph - - -
7:12 6 9 mph 1009.7mb 64f 67f
7:06 10 11 mph 1009.7mb 64f 67f
7:00 6 11 mph 1009.6mb 64f 67f
6:54 9 10 mph 1009.6mb 64f 67f
6:48 9 13 mph 1009.6mb 64f 67f
6:42 10 11 mph 1009.7mb 64f 67f
6:36 7 10 mph 1009.6mb 64f 67f
6:30 9 10 mph 1009.6mb 64f 67f
6:24 9 10 mph 1009.5mb 64f 67f
6:18 8 9 mph - - -
6:12 7 8 mph 1009.4mb 64f 67f
6:06 6 8 mph 1009.4mb 64f 67f
6:00 7 8 mph 1009.4mb 64f 67f
5:54 8 8 mph 1009.4mb 64f 67f
5:48 7 8 mph - - -
5:42 6 8 mph 1009.4mb 64f 67f
5:36 7 7 mph 1009.4mb 64f 67f
5:30 7 8 mph 1009.4mb 64f 67f
5:24 7 9 mph 1009.5mb 64f 67f
5:18 8 9 mph - - -
5:12 6 8 mph 1009.6mb 64f 67f
5:06 8 9 mph 1009.6mb 64f 67f
5:00 8 10 mph 1009.5mb 63f 67f
4:54 9 10 mph 1009.6mb 65f 67f
4:48 8 10 mph 1009.6mb - -
4:42 8 10 mph 1009.5mb 65f 67f
4:36 10 11 mph 1009.6mb 65f 67f
4:30 9 11 mph 1009.6mb 66f 67f
4:24 10 11 mph 1009.6mb 65f 67f
4:00 9 11 mph 1009.6mb 63f 67f
3:54 9 11 mph 1009.5mb 62f 67f
3:48 9 10 mph 1009.5mb - -
3:42 9 10 mph 1009.5mb 60f 67f
3:36 9 11 mph 1009.5mb 60f 67f
3:30 9 10 mph 1009.5mb 61f 67f
3:24 9 11 mph 1009.6mb 61f 67f
3:18 10 10 mph - - -
3:12 9 10 mph 1009.6mb 60f 67f
3:06 9 10 mph 1009.6mb 62f 67f
3:00 9 11 mph 1009.7mb 62f 67f
2:54 11 13 mph 1009.7mb 63f 67f
2:48 10 13 mph 1009.7mb 63f 67f
2:42 11 14 mph 1009.7mb 62f 67f
2:36 13 14 mph 1009.7mb 62f 67f
2:30 13 15 mph 1009.6mb 63f 67f
2:24 14 15 mph 1009.7mb 63f 66f
2:18 14 15 mph 1009.6mb 62f 66f
2:12 15 16 mph 1009.6mb 62f 66f
2:06 15 16 mph 1009.7mb 61f 66f
2:00 15 17 mph 1009.8mb 61f 66f
1:54 15 16 mph 1009.8mb 62f 66f
1:48 15 16 mph 1009.8mb 62f 66f
1:42 14 16 mph 1009.8mb 62f 66f
1:36 15 17 mph 1009.9mb 62f 66f
1:30 15 16 mph 1009.9mb 62f 66f
1:24 16 17 mph 1009.9mb 62f 66f
1:18 16 17 mph 1010mb 62f 66f
1:12 16 16 mph 1010mb 62f 66f
1:06 15 16 mph 1010.1mb 62f 66f
1:00 15 15 mph 1010.2mb 61f 66f
12:54 14 15 mph 1010.2mb 61f 65f
12:48 14 15 mph 1010.3mb 61f 66f
12:42 15 15 mph 1010.3mb 61f 65f
12:36 15 15 mph 1010.3mb 61f 65f
12:30 14 15 mph 1010.3mb 61f 65f
12:24 14 15 mph 1010.3mb 60f 65f
12:18 14 15 mph 1010.2mb 60f 65f
12:12 14 16 mph 1010.2mb 60f 65f
12:06 14 16 mph 1010.3mb 60f 65f
12:00 13 15 mph 1010.4mb 61f 65f
11:54 14 16 mph 1010.5mb 60f 65f
11:48 13 15 mph 1010.6mb 59f 65f
11:42 13 14 mph 1010.5mb 59f 65f
11:36 13 14 mph 1010.5mb 59f 65f
11:30 10 14 mph 1010.5mb 59f 66f
11:24 11 14 mph 1010.5mb 60f 66f
11:18 7 10 mph 1010.5mb 60f 66f
11:12 6 11 mph 1010.5mb 60f 67f
11:06 8 10 mph 1010.4mb 60f 67f
11:00 8 13 mph 1010.5mb 60f 67f
10:54 8 13 mph 1010.4mb 60f 67f
10:48 7 11 mph - - -
10:42 10 13 mph 1010.5mb 61f 67f
10:36 8 11 mph 1010.4mb 61f 67f
10:30 8 11 mph 1010.3mb 61f 66f
10:24 6 10 mph 1010.3mb 61f 66f
10:18 8 14 mph 1010.4mb 61f 66f
10:12 10 11 mph 1010.3mb 62f 66f
10:06 10 11 mph 1010.3mb 59f 66f
10:00 9 11 mph 1010.3mb 61f 66f
9:54 8 14 mph 1010.2mb 63f 65f
9:48 8 15 mph 1010.1mb 64f 65f
9:42 7 11 mph 1010.1mb 62f 65f
9:36 7 10 mph 1010mb 61f 65f
9:30 8 13 mph 1010.1mb 64f 65f
9:24 8 11 mph 1010mb 64f 65f
9:18 11 13 mph 1010mb 65f 65f
9:12 7 14 mph 1010mb 65f 65f
9:06 9 11 mph 1010mb 65f 64f
9:00 9 13 mph 1010mb 65f 64f
8:54 8 13 mph 1009.8mb 65f 64f
8:48 10 13 mph 1009.8mb 64f 64f
8:42 8 11 mph 1009.7mb 64f 64f
8:36 8 10 mph 1009.7mb 65f 64f
8:30 9 10 mph 1009.6mb 64f 64f
8:24 7 9 mph 1009.6mb 61f 64f
8:18 6 8 mph 1009.5mb 60f 64f
8:12 7 9 mph 1009.5mb 60f 64f
8:06 6 10 mph 1009.4mb 55f 64f
8:00 8 10 mph 1009.3mb 58f 64f
7:54 7 9 mph 1009.1mb 58f 64f
7:48 7 8 mph 1009.1mb 58f 64f
7:42 6 9 mph 1009.1mb 56f 64f
7:36 5 7 mph 1009.1mb 57f 64f
7:30 7 8 mph 1009mb 56f 64f
7:24 8 10 mph 1008.9mb 56f 64f
7:18 8 9 mph 1008.8mb 56f 64f
7:12 7 8 mph 1008.8mb 58f 64f
7:06 7 8 mph 1008.7mb 58f 64f
7:00 6 8 mph 1008.5mb 57f 64f
6:54 7 8 mph 1008.4mb 56f 64f
6:48 7 8 mph 1008.3mb 57f 64f
6:42 7 8 mph 1008.1mb 56f 63f
6:36 2 2 mph 1008mb 56f 64f
6:30 1 3 mph 1007.9mb 54f 64f
6:24 3 7 mph 1007.9mb 54f 64f
6:18 5 6 mph 1007.8mb 54f 63f
6:12 3 6 mph 1007.9mb 54f 63f
6:06 5 5 mph 1007.8mb 55f 63f
6:00 5 7 mph 1007.8mb 56f 63f
5:54 6 6 mph 1007.6mb 55f 63f
5:48 1 2 mph 1007.5mb 57f 64f
5:42  -  3 mph 1007.5mb 56f 64f
5:36 2 6 mph 1007.3mb 59f 64f
5:30 6 7 mph 1007.2mb 57f 64f
5:24 6 7 mph 1007.2mb 57f 64f
5:18 5 6 mph 1007.2mb 60f 64f
5:12 6 10 mph 1007.2mb 59f 64f
5:06 9 10 mph 1007.1mb 57f 64f
5:00 7 8 mph 1007mb 58f 64f
4:54  -  1 mph 1007mb 58f 64f
4:48 1 3 mph 1007mb 58f 64f
4:42 2 5 mph 1007mb 58f 64f
4:36 2 3 mph 1006.9mb 61f 64f
4:30 3 3 mph 1006.9mb 61f 64f
4:24 2 6 mph 1006.9mb 60f 64f
4:18 3 5 mph 1006.8mb 61f 64f
4:12 3 5 mph 1006.8mb 62f 64f
4:06 5 6 mph 1006.8mb 62f 64f
4:00 6 9 mph 1006.8mb 61f 64f
3:54 6 7 mph 1006.8mb 61f 64f
3:48 7 9 mph 1006.8mb 63f 64f
3:42 3 6 mph 1006.7mb 63f 64f
3:36 5 7 mph 1006.7mb 61f 64f
3:30 6 7 mph 1006.7mb 59f 64f
3:24 6 7 mph 1006.7mb 59f 64f
3:18 6 6 mph 1006.8mb 61f 64f
3:12 5 7 mph 1006.7mb 60f 64f
3:06 6 7 mph 1006.7mb 61f 64f
3:00 6 7 mph 1006.8mb 62f 64f
2:54 6 7 mph 1006.8mb 63f 64f
2:48 6 6 mph 1006.8mb 61f 64f
2:42 3 5 mph 1006.9mb 60f 64f
2:36 3 8 mph 1006.9mb 63f 64f
2:30 5 6 mph 1006.9mb 64f 64f
2:24 3 5 mph 1007mb 64f 64f
2:18 5 6 mph 1006.9mb 64f 64f
2:12 5 6 mph 1006.9mb 64f 65f
2:06 2 3 mph 1007mb 63f 65f
2:00  -  1 mph 1007.1mb 64f 65f
1:54 1 2 mph 1007.1mb 63f 65f
1:48  -  1 mph - - -
1:42 1 2 mph 1007.2mb 65f 65f
1:36 1 2 mph 1007.2mb 66f 65f
1:30  -  1 mph 1007.2mb 66f 65f
1:24  -  2 mph 1007.1mb 66f 65f
1:18  -  2 mph 1007.1mb 65f 65f
1:12  -  3 mph 1007.2mb 65f 65f
1:06 1 2 mph 1007.1mb 65f 64f
1:00  -  2 mph 1007.1mb 65f 64f
12:54  -  1 mph 1007.2mb 65f 65f
12:48  -  1 mph 1007.2mb 65f 65f
12:42  -  2 mph 1007.3mb 65f 65f
12:36  -  2 mph 1007.3mb 65f 65f
12:30 2 3 mph 1007.2mb 65f 64f
12:24 1 2 mph 1007.2mb 64f 64f
12:18 1 2 mph 1007.2mb 64f 64f
12:12 2 3 mph 1007.2mb 62f 64f
12:06  -  3 mph 1007.1mb 62f 65f
12:00 1 3 mph 1007.1mb 61f 65f
Qua 06/21 11:54 1 3 mph 1007.1mb 62f 65f
11:48  -  2 mph 1007.1mb 62f 65f
11:42 2 3 mph 1007.1mb - -
11:36 3 5 mph 1007.2mb - -
11:30 2 3 mph 1007.2mb 64f 65f
11:24 3 3 mph 1007.2mb 63f 65f
11:18 3 3 mph 1007.2mb 63f 65f
11:12 1 2 mph 1007.2mb 61f 65f
11:06  -  1 mph 1007.2mb 57f 65f
11:00  -  1 mph 1007.3mb 56f 65f
10:54  -  2 mph 1007.3mb 56f 65f
10:48 1 2 mph 1007.3mb 56f 65f
10:42 2 2 mph 1007.3mb 57f -
10:36 2 2 mph 1007.3mb 56f -
10:30 2 3 mph 1007.2mb 57f 65f
10:24 2 3 mph 1007.2mb 57f 65f
10:18  -  2 mph 1007.2mb 56f 65f
10:12 1 1 mph 1007.2mb 57f 65f
10:06  -  2 mph 1007.2mb 57f 65f
10:00  -  2 mph 1007.1mb 56f 65f
9:54  -  5 mph 1007mb 56f 65f
9:48 5 6 mph 1007mb 57f 65f
9:42 5 5 mph 1006.9mb 56f 65f
9:36 1 2 mph 1006.8mb 57f 65f
9:30 2 3 mph 1006.8mb 60f 65f
9:24  -  5 mph 1006.7mb 60f 65f
9:18 3 6 mph 1006.7mb 57f 65f
9:12 5 6 mph 1006.7mb 58f 65f
9:06 1 3 mph 1006.6mb 56f 65f
9:00 3 5 mph 1006.5mb 55f 65f
8:54 1 7 mph 1006.5mb 56f 65f
8:48 7 8 mph - - -
8:42 3 6 mph 1006.4mb 55f 65f
8:36 5 6 mph 1006.3mb 55f 65f
8:30 3 6 mph 1006.3mb 54f 65f
8:24 6 6 mph 1006.3mb 54f 65f
8:18 1 2 mph 1006.2mb 54f 65f
8:12 1 5 mph 1006.2mb 53f 65f
8:06 3 6 mph 1006.2mb 53f 65f
8:00 5 6 mph 1006.1mb 53f 65f
7:54 5 6 mph 1006mb 53f 65f
7:48 3 6 mph - - -
7:42 2 6 mph 1006mb 55f 65f
7:36 5 6 mph 1006.1mb 55f 65f
7:30 6 6 mph 1006mb 55f 65f
7:24 2 5 mph 1006.1mb 55f 65f
7:18 3 5 mph - - -
7:12 2 3 mph 1006.1mb 55f 66f
7:06 2 2 mph 1006.1mb 56f 65f
7:00 1 2 mph 1006.1mb 57f 66f
6:54  -  3 mph 1006mb 57f 66f
6:48 2 6 mph 1006mb 56f 65f
6:42 5 6 mph 1005.9mb 57f 66f
6:36 1 2 mph 1005.9mb 58f 66f
6:30 1 2 mph 1005.9mb 58f 66f
6:24  -  3 mph 1006mb 57f 66f
6:18 2 5 mph - - -
6:12 5 6 mph 1005.9mb 57f 66f
6:06 5 6 mph 1005.9mb 56f 66f
6:00 3 6 mph 1005.9mb 57f 66f
5:54 5 5 mph 1006mb 58f 66f
5:48 3 5 mph - - -
5:42 3 5 mph 1006mb 58f 66f
5:36 3 6 mph 1006.1mb 58f 66f
5:30 1 2 mph 1006.1mb 60f 67f
5:24 1 5 mph 1006.2mb 63f 66f
5:18 5 6 mph 1006.2mb 65f 66f
5:12 5 6 mph 1006.2mb 65f 66f
5:06 3 6 mph 1006.3mb 63f 66f
5:00 2 6 mph 1006.3mb 63f 66f
4:54 2 7 mph 1006.4mb 62f 66f
4:48 6 7 mph 1006.4mb - -
4:42 5 6 mph 1006.4mb 62f 66f
4:36 5 6 mph 1006.5mb 65f 66f
4:30 3 5 mph 1006.6mb 65f 67f
4:24 3 6 mph 1006.6mb 64f 66f
4:18 3 7 mph - - -
4:12 6 7 mph 1006.6mb 64f 66f
4:06 6 8 mph 1006.7mb 64f 67f
4:00 7 8 mph 1006.7mb 63f 67f
3:54 6 7 mph 1006.8mb 62f 67f
3:48 6 7 mph 1006.9mb 66f 67f
3:42 6 7 mph 1006.9mb 65f 67f
3:36 6 7 mph 1006.9mb 65f 67f
3:30 3 6 mph 1007mb 64f 67f
3:24 3 6 mph 1007.1mb 63f 67f
3:18 3 5 mph - - -
3:12 6 8 mph 1007.2mb 59f 67f
3:06 5 8 mph 1007.3mb 60f 67f
3:00 6 9 mph 1007.4mb 60f 67f
2:54 5 7 mph 1007.4mb 58f 67f
2:48 6 8 mph - - -
2:42 6 7 mph 1007.5mb 61f 67f
2:36 6 8 mph 1007.5mb 62f 67f
2:30 5 6 mph 1007.6mb 63f 67f
2:24 6 7 mph 1007.6mb 62f 67f
2:18 6 8 mph 1007.7mb 63f 67f
2:12 6 7 mph 1007.7mb 63f 67f
2:06 6 7 mph 1007.7mb 62f 67f
2:00 3 7 mph 1007.7mb 61f 68f
1:54 5 8 mph 1007.7mb 58f 67f
1:48 7 8 mph 1007.9mb 58f 67f
1:42 5 6 mph 1008mb 59f 68f
1:36 5 6 mph 1008mb 58f 67f
1:30 5 6 mph 1008mb 58f 67f
1:24 5 7 mph 1008mb 60f 67f
1:18 7 8 mph 1008mb 61f 67f
1:12 6 8 mph 1008mb 60f 67f
1:06 5 7 mph 1008mb 61f 67f
1:00 6 8 mph 1008mb 63f 67f
12:54 6 8 mph 1008.1mb 63f 67f
12:48 6 7 mph 1008.2mb 64f 68f
12:42 5 7 mph 1008.1mb 63f 68f
12:36 6 8 mph 1008.1mb 63f 67f
12:30 6 7 mph 1008.1mb 63f 67f
12:24 5 7 mph 1008.1mb 64f 68f
12:18 3 6 mph 1008.1mb 63f 68f
12:12 2 3 mph 1008.2mb 62f 68f
12:06 5 6 mph 1008.2mb 62f 67f
12:00 6 7 mph 1008.2mb 61f 67f
11:54 6 7 mph 1008.3mb 62f 67f
11:48 6 7 mph 1008.3mb 62f 67f
11:42 5 5 mph 1008.3mb 61f 67f
11:36 3 6 mph 1008.4mb 60f 66f
11:30 5 6 mph 1008.4mb 60f 66f
11:24 5 6 mph 1008.4mb 59f 66f
11:18 5 6 mph 1008.5mb 58f 66f
11:12 5 6 mph 1008.5mb 59f 65f
11:06 6 8 mph 1008.5mb 57f 65f
11:00 6 7 mph 1008.4mb 59f 65f
10:54 7 8 mph 1008.5mb 59f 65f
10:48 6 8 mph - - -
10:42 5 7 mph - 58f -
10:36 5 6 mph - 58f -
10:30 6 7 mph 1008.3mb 56f 66f
10:24 5 7 mph 1008.3mb 56f 66f
10:18 3 6 mph 1008.3mb 56f 66f
10:12 5 7 mph 1008.3mb 56f 66f
10:06 6 7 mph 1008.2mb 56f 66f
10:00 3 5 mph 1008.2mb 56f 66f
9:54 2 2 mph 1008.3mb 57f 66f
9:48 2 3 mph - - -
9:42 5 6 mph 1008.4mb 56f 66f
9:36 5 6 mph 1008.3mb 57f 66f
9:30 3 6 mph 1008.3mb 57f 66f
9:24 3 6 mph 1008.4mb 57f 66f
9:18 3 5 mph 1008.4mb 58f 66f
9:12 3 6 mph 1008.3mb 57f 66f
9:06 5 6 mph 1008.3mb 57f 66f
9:00 3 5 mph 1008.2mb 58f 66f
8:54 2 3 mph 1008.2mb 58f 66f
8:48 3 3 mph 1008.2mb 60f 65f
8:42 2 5 mph 1008.2mb 61f 65f
8:36 5 6 mph 1008.3mb 61f 65f
8:30 3 6 mph 1008.3mb 62f 65f
8:24 2 3 mph 1008.2mb 62f 65f
8:18 2 6 mph - - -
8:12 5 8 mph 1008.2mb 63f 65f
8:06 6 7 mph 1008.1mb 63f 65f
8:00 6 7 mph 1008mb 64f 65f
7:54 5 6 mph 1008mb 64f 65f
7:48 6 7 mph 1008mb 65f 65f
7:42 6 7 mph 1007.9mb 66f 65f
7:36 5 6 mph 1007.8mb 67f 65f
7:30 2 3 mph 1007.8mb 67f 65f
7:24 3 6 mph 1007.9mb 67f 65f
7:18 5 6 mph 1007.8mb 67f 65f